sensor_id;sensor_type;location;lat;lon;timestamp;pressure;altitude;pressure_sealevel;temperature;humidity
61678;BME280;47575;52.054;4.334;2022-09-09T00:01:22;100915.22;;;16.17;100.00
61678;BME280;47575;52.054;4.334;2022-09-09T00:03:55;100910.78;;;16.17;100.00
61678;BME280;47575;52.054;4.334;2022-09-09T00:06:28;100902.16;;;16.14;100.00
61678;BME280;47575;52.054;4.334;2022-09-09T00:09:00;100909.41;;;16.10;100.00
61678;BME280;47575;52.054;4.334;2022-09-09T00:11:36;100903.41;;;16.06;100.00
61678;BME280;47575;52.054;4.334;2022-09-09T00:14:13;100905.38;;;16.03;100.00
61678;BME280;47575;52.054;4.334;2022-09-09T00:16:49;100907.22;;;16.01;100.00
61678;BME280;47575;52.054;4.334;2022-09-09T00:19:23;100905.38;;;16.03;100.00
61678;BME280;47575;52.054;4.334;2022-09-09T00:22:00;100914.31;;;16.00;100.00
61678;BME280;47575;52.054;4.334;2022-09-09T00:24:38;100906.47;;;15.99;100.00
61678;BME280;47575;52.054;4.334;2022-09-09T00:27:16;100908.19;;;16.00;100.00
61678;BME280;47575;52.054;4.334;2022-09-09T00:29:52;100910.91;;;15.98;100.00
61678;BME280;47575;52.054;4.334;2022-09-09T00:32:21;100904.94;;;15.95;100.00
61678;BME280;47575;52.054;4.334;2022-09-09T00:34:52;100893.69;;;15.91;100.00
61678;BME280;47575;52.054;4.334;2022-09-09T00:37:22;100893.69;;;15.91;100.00
61678;BME280;47575;52.054;4.334;2022-09-09T00:39:54;100900.75;;;15.91;100.00
61678;BME280;47575;52.054;4.334;2022-09-09T00:42:26;100900.94;;;15.88;100.00
61678;BME280;47575;52.054;4.334;2022-09-09T00:45:01;100902.72;;;15.87;100.00
61678;BME280;47575;52.054;4.334;2022-09-09T00:47:40;100904.75;;;15.82;100.00
61678;BME280;47575;52.054;4.334;2022-09-09T00:50:20;100915.28;;;15.82;100.00
61678;BME280;47575;52.054;4.334;2022-09-09T00:52:53;100907.59;;;15.77;100.00
61678;BME280;47575;52.054;4.334;2022-09-09T00:55:28;100903.34;;;15.75;100.00
61678;BME280;47575;52.054;4.334;2022-09-09T00:58:01;100900.63;;;15.76;100.00
61678;BME280;47575;52.054;4.334;2022-09-09T01:00:31;100902.41;;;15.76;100.00
61678;BME280;47575;52.054;4.334;2022-09-09T01:03:18;100902.41;;;15.76;100.00
61678;BME280;47575;52.054;4.334;2022-09-09T01:05:51;100893.34;;;15.82;100.00
61678;BME280;47575;52.054;4.334;2022-09-09T01:08:36;100891.78;;;15.77;100.00
61678;BME280;47575;52.054;4.334;2022-09-09T01:11:10;100890.16;;;15.75;100.00
61678;BME280;47575;52.054;4.334;2022-09-09T01:13:45;100887.53;;;15.75;100.00
61678;BME280;47575;52.054;4.334;2022-09-09T01:16:15;100886.75;;;15.73;100.00
61678;BME280;47575;52.054;4.334;2022-09-09T01:18:45;100886.81;;;15.71;100.00
61678;BME280;47575;52.054;4.334;2022-09-09T01:21:22;100888.78;;;15.68;100.00
61678;BME280;47575;52.054;4.334;2022-09-09T01:24:13;100884.44;;;15.67;100.00
61678;BME280;47575;52.054;4.334;2022-09-09T01:26:59;100886.50;;;15.60;100.00
61678;BME280;47575;52.054;4.334;2022-09-09T01:29:28;100883.25;;;15.55;100.00
61678;BME280;47575;52.054;4.334;2022-09-09T01:31:57;100877.03;;;15.56;100.00
61678;BME280;47575;52.054;4.334;2022-09-09T01:34:28;100876.97;;;15.58;100.00
61678;BME280;47575;52.054;4.334;2022-09-09T01:36:59;100869.06;;;15.58;100.00
61678;BME280;47575;52.054;4.334;2022-09-09T01:39:31;100871.75;;;15.56;100.00
61678;BME280;47575;52.054;4.334;2022-09-09T01:42:06;100869.06;;;15.58;100.00
61678;BME280;47575;52.054;4.334;2022-09-09T01:44:35;100872.78;;;15.54;100.00
61678;BME280;47575;52.054;4.334;2022-09-09T01:47:04;100864.94;;;15.52;100.00
61678;BME280;47575;52.054;4.334;2022-09-09T01:49:32;100869.47;;;15.50;100.00
61678;BME280;47575;52.054;4.334;2022-09-09T01:52:05;100869.53;;;15.48;100.00
61678;BME280;47575;52.054;4.334;2022-09-09T01:54:37;100866.88;;;15.48;100.00
61678;BME280;47575;52.054;4.334;2022-09-09T01:57:16;100863.25;;;15.51;100.00
61678;BME280;47575;52.054;4.334;2022-09-09T01:59:52;100870.38;;;15.49;100.00
61678;BME280;47575;52.054;4.334;2022-09-09T02:02:25;100863.16;;;15.52;100.00
61678;BME280;47575;52.054;4.334;2022-09-09T02:05:16;100854.31;;;15.54;100.00
61678;BME280;47575;52.054;4.334;2022-09-09T02:07:47;100863.00;;;15.56;100.00
61678;BME280;47575;52.054;4.334;2022-09-09T02:10:34;100853.00;;;15.62;100.00
61678;BME280;47575;52.054;4.334;2022-09-09T02:13:15;100861.78;;;15.63;100.00
61678;BME280;47575;52.054;4.334;2022-09-09T02:15:47;100855.22;;;15.70;100.00
61678;BME280;47575;52.054;4.334;2022-09-09T02:18:24;100846.16;;;15.75;100.00
61678;BME280;47575;52.054;4.334;2022-09-09T02:20:53;100846.81;;;15.79;100.00
61678;BME280;47575;52.054;4.334;2022-09-09T02:23:20;100835.69;;;15.74;100.00
61678;BME280;47575;52.054;4.334;2022-09-09T02:25:52;100830.97;;;15.79;100.00
61678;BME280;47575;52.054;4.334;2022-09-09T02:28:26;100830.75;;;15.84;100.00
61678;BME280;47575;52.054;4.334;2022-09-09T02:30:55;100832.31;;;15.88;100.00
61678;BME280;47575;52.054;4.334;2022-09-09T02:33:33;100818.66;;;15.80;100.00
61678;BME280;47575;52.054;4.334;2022-09-09T02:36:03;100815.66;;;15.70;100.00
61678;BME280;47575;52.054;4.334;2022-09-09T02:38:35;100818.47;;;15.67;100.00
61678;BME280;47575;52.054;4.334;2022-09-09T02:41:09;100820.50;;;15.62;100.00
61678;BME280;47575;52.054;4.334;2022-09-09T02:43:38;100824.91;;;15.61;100.00
61678;BME280;47575;52.054;4.334;2022-09-09T02:46:22;100823.13;;;15.62;100.00
61678;BME280;47575;52.054;4.334;2022-09-09T02:48:58;100829.97;;;15.66;100.00
61678;BME280;47575;52.054;4.334;2022-09-09T02:51:36;100823.75;;;15.67;100.00
61678;BME280;47575;52.054;4.334;2022-09-09T02:54:13;100822.34;;;15.60;100.00
61678;BME280;47575;52.054;4.334;2022-09-09T02:56:47;100816.31;;;15.58;100.00
61678;BME280;47575;52.054;4.334;2022-09-09T02:59:19;100814.84;;;15.52;100.00
61678;BME280;47575;52.054;4.334;2022-09-09T03:01:47;100817.38;;;15.54;100.00
61678;BME280;47575;52.054;4.334;2022-09-09T03:04:14;100806.06;;;15.51;100.00
61678;BME280;47575;52.054;4.334;2022-09-09T03:06:41;100806.81;;;15.54;100.00
61678;BME280;47575;52.054;4.334;2022-09-09T03:09:16;100799.94;;;15.51;100.00
61678;BME280;47575;52.054;4.334;2022-09-09T03:11:44;100799.09;;;15.50;100.00
61678;BME280;47575;52.054;4.334;2022-09-09T03:14:13;100793.97;;;15.47;100.00
61678;BME280;47575;52.054;4.334;2022-09-09T03:16:42;100794.03;;;15.46;100.00
61678;BME280;47575;52.054;4.334;2022-09-09T03:19:10;100786.31;;;15.43;100.00
61678;BME280;47575;52.054;4.334;2022-09-09T03:21:37;100793.09;;;15.47;100.00
61678;BME280;47575;52.054;4.334;2022-09-09T03:24:05;100780.94;;;15.44;100.00
61678;BME280;47575;52.054;4.334;2022-09-09T03:26:33;100786.13;;;15.46;100.00
61678;BME280;47575;52.054;4.334;2022-09-09T03:29:00;100784.53;;;15.43;100.00
61678;BME280;47575;52.054;4.334;2022-09-09T03:31:29;100781.19;;;15.40;100.00
61678;BME280;47575;52.054;4.334;2022-09-09T03:33:59;100782.13;;;15.39;100.00
61678;BME280;47575;52.054;4.334;2022-09-09T03:36:30;100779.16;;;15.45;100.00
61678;BME280;47575;52.054;4.334;2022-09-09T03:38:58;100780.09;;;15.44;100.00
61678;BME280;47575;52.054;4.334;2022-09-09T03:41:28;100779.38;;;15.40;100.00
61678;BME280;47575;52.054;4.334;2022-09-09T03:43:55;100783.91;;;15.38;100.00
61678;BME280;47575;52.054;4.334;2022-09-09T03:46:25;100790.72;;;15.42;100.00
61678;BME280;47575;52.054;4.334;2022-09-09T03:48:53;100778.13;;;15.47;100.00
61678;BME280;47575;52.054;4.334;2022-09-09T03:51:21;100781.56;;;15.49;100.00
61678;BME280;47575;52.054;4.334;2022-09-09T03:53:49;100773.88;;;15.45;100.00
61678;BME280;47575;52.054;4.334;2022-09-09T03:56:17;100770.47;;;15.43;100.00
61678;BME280;47575;52.054;4.334;2022-09-09T03:58:45;100774.63;;;15.47;100.00
61678;BME280;47575;52.054;4.334;2022-09-09T04:01:13;100773.19;;;15.41;100.00
61678;BME280;47575;52.054;4.334;2022-09-09T04:03:43;100767.91;;;15.41;100.00
61678;BME280;47575;52.054;4.334;2022-09-09T04:06:13;100763.47;;;15.42;100.00
61678;BME280;47575;52.054;4.334;2022-09-09T04:08:45;100760.38;;;15.51;100.00
61678;BME280;47575;52.054;4.334;2022-09-09T04:11:14;100757.88;;;15.48;100.00
61678;BME280;47575;52.054;4.334;2022-09-09T04:13:42;100753.88;;;15.41;100.00
61678;BME280;47575;52.054;4.334;2022-09-09T04:16:12;100755.75;;;15.39;100.00
61678;BME280;47575;52.054;4.334;2022-09-09T04:18:41;100758.19;;;15.42;100.00
61678;BME280;47575;52.054;4.334;2022-09-09T04:21:09;100744.97;;;15.43;100.00
61678;BME280;47575;52.054;4.334;2022-09-09T04:23:38;100734.31;;;15.45;100.00
61678;BME280;47575;52.054;4.334;2022-09-09T04:26:07;100733.47;;;15.44;100.00
61678;BME280;47575;52.054;4.334;2022-09-09T04:28:36;100718.91;;;15.53;100.00
61678;BME280;47575;52.054;4.334;2022-09-09T04:31:08;100720.63;;;15.54;100.00
61678;BME280;47575;52.054;4.334;2022-09-09T04:33:36;100721.38;;;15.56;100.00
61678;BME280;47575;52.054;4.334;2022-09-09T04:36:05;100723.88;;;15.59;100.00
61678;BME280;47575;52.054;4.334;2022-09-09T04:38:33;100716.03;;;15.58;100.00
61678;BME280;47575;52.054;4.334;2022-09-09T04:41:01;100715.19;;;15.57;100.00
61678;BME280;47575;52.054;4.334;2022-09-09T04:43:29;100704.63;;;15.57;100.00
61678;BME280;47575;52.054;4.334;2022-09-09T04:45:58;100716.75;;;15.61;100.00
61678;BME280;47575;52.054;4.334;2022-09-09T04:48:26;100710.69;;;15.59;100.00
61678;BME280;47575;52.054;4.334;2022-09-09T04:50:55;100709.81;;;15.59;100.00
61678;BME280;47575;52.054;4.334;2022-09-09T04:53:24;100704.53;;;15.59;100.00
61678;BME280;47575;52.054;4.334;2022-09-09T04:55:53;100703.00;;;15.55;100.00
61678;BME280;47575;52.054;4.334;2022-09-09T04:58:21;100711.75;;;15.55;100.00
61678;BME280;47575;52.054;4.334;2022-09-09T05:00:51;100710.91;;;15.55;100.00
61678;BME280;47575;52.054;4.334;2022-09-09T05:03:19;100709.47;;;15.49;100.00
61678;BME280;47575;52.054;4.334;2022-09-09T05:05:47;100700.53;;;15.51;100.00
61678;BME280;47575;52.054;4.334;2022-09-09T05:08:14;100704.97;;;15.51;100.00
61678;BME280;47575;52.054;4.334;2022-09-09T05:10:41;100704.78;;;15.54;100.00
61678;BME280;47575;52.054;4.334;2022-09-09T05:13:09;100708.38;;;15.53;100.00
61678;BME280;47575;52.054;4.334;2022-09-09T05:15:37;100698.16;;;15.47;100.00
61678;BME280;47575;52.054;4.334;2022-09-09T05:18:07;100699.19;;;15.44;100.00
61678;BME280;47575;52.054;4.334;2022-09-09T05:20:34;100693.16;;;15.42;100.00
61678;BME280;47575;52.054;4.334;2022-09-09T05:23:02;100694.06;;;15.41;100.00
61678;BME280;47575;52.054;4.334;2022-09-09T05:25:32;100690.66;;;15.39;100.00
61678;BME280;47575;52.054;4.334;2022-09-09T05:27:59;100687.88;;;15.42;100.00
61678;BME280;47575;52.054;4.334;2022-09-09T05:30:27;100686.75;;;15.46;100.00
61678;BME280;47575;52.054;4.334;2022-09-09T05:32:55;100689.16;;;15.51;100.00
61678;BME280;47575;52.054;4.334;2022-09-09T05:35:24;100697.81;;;15.53;100.00
61678;BME280;47575;52.054;4.334;2022-09-09T05:37:52;100702.38;;;15.67;100.00
61678;BME280;47575;52.054;4.334;2022-09-09T05:40:19;100706.47;;;15.72;100.00
61678;BME280;47575;52.054;4.334;2022-09-09T05:42:48;100706.09;;;15.78;100.00
61678;BME280;47575;52.054;4.334;2022-09-09T05:45:15;100723.66;;;15.80;100.00
61678;BME280;47575;52.054;4.334;2022-09-09T05:47:43;100728.94;;;15.80;100.00
61678;BME280;47575;52.054;4.334;2022-09-09T05:50:13;100723.22;;;15.87;100.00
61678;BME280;47575;52.054;4.334;2022-09-09T05:52:42;100724.94;;;15.88;100.00
61678;BME280;47575;52.054;4.334;2022-09-09T05:55:10;100717.75;;;15.90;100.00
61678;BME280;47575;52.054;4.334;2022-09-09T05:57:37;100719.38;;;15.93;100.00
61678;BME280;47575;52.054;4.334;2022-09-09T06:00:06;100728.06;;;15.95;100.00
61678;BME280;47575;52.054;4.334;2022-09-09T06:02:39;100711.19;;;15.97;100.00
61678;BME280;47575;52.054;4.334;2022-09-09T06:05:09;100710.25;;;15.98;100.00
61678;BME280;47575;52.054;4.334;2022-09-09T06:07:37;100707.63;;;15.98;100.00
61678;BME280;47575;52.054;4.334;2022-09-09T06:10:09;100705.59;;;16.03;100.00
61678;BME280;47575;52.054;4.334;2022-09-09T06:12:39;100708.72;;;16.10;100.00
61678;BME280;47575;52.054;4.334;2022-09-09T06:15:07;100704.53;;;16.06;100.00
61678;BME280;47575;52.054;4.334;2022-09-09T06:17:35;100697.38;;;16.08;100.00
61678;BME280;47575;52.054;4.334;2022-09-09T06:20:03;100698.56;;;16.18;100.00
61678;BME280;47575;52.054;4.334;2022-09-09T06:22:32;100694.88;;;16.21;100.00
61678;BME280;47575;52.054;4.334;2022-09-09T06:24:59;100694.88;;;16.21;100.00
61678;BME280;47575;52.054;4.334;2022-09-09T06:27:29;100694.53;;;16.27;100.00
61678;BME280;47575;52.054;4.334;2022-09-09T06:29:57;100684.47;;;16.33;100.00
61678;BME280;47575;52.054;4.334;2022-09-09T06:32:24;100684.56;;;16.32;100.00
61678;BME280;47575;52.054;4.334;2022-09-09T06:34:53;100680.03;;;16.34;100.00
61678;BME280;47575;52.054;4.334;2022-09-09T06:37:20;100684.38;;;16.35;100.00
61678;BME280;47575;52.054;4.334;2022-09-09T06:39:50;100678.06;;;16.38;100.00
61678;BME280;47575;52.054;4.334;2022-09-09T06:42:17;100687.97;;;16.34;100.00
61678;BME280;47575;52.054;4.334;2022-09-09T06:45:18;100667.78;;;16.33;100.00
61678;BME280;47575;52.054;4.334;2022-09-09T06:47:54;100688.06;;;16.32;100.00
61678;BME280;47575;52.054;4.334;2022-09-09T06:50:22;100666.06;;;16.32;100.00
61678;BME280;47575;52.054;4.334;2022-09-09T06:52:50;100666.38;;;16.42;100.00
61678;BME280;47575;52.054;4.334;2022-09-09T06:55:18;100663.16;;;16.37;100.00
61678;BME280;47575;52.054;4.334;2022-09-09T06:57:46;100668.06;;;16.43;100.00
61678;BME280;47575;52.054;4.334;2022-09-09T07:00:20;100662.53;;;16.47;100.00
61678;BME280;47575;52.054;4.334;2022-09-09T07:02:47;100660.63;;;16.49;100.00
61678;BME280;47575;52.054;4.334;2022-09-09T07:05:17;100668.47;;;16.51;100.00
61678;BME280;47575;52.054;4.334;2022-09-09T07:07:45;100668.81;;;16.45;100.00
61678;BME280;47575;52.054;4.334;2022-09-09T07:10:15;100664.47;;;16.44;100.00
61678;BME280;47575;52.054;4.334;2022-09-09T07:12:44;100656.84;;;16.39;100.00
61678;BME280;47575;52.054;4.334;2022-09-09T07:15:12;100659.31;;;16.42;100.00
61678;BME280;47575;52.054;4.334;2022-09-09T07:17:44;100658.44;;;16.42;100.00
61678;BME280;47575;52.054;4.334;2022-09-09T07:20:12;100657.69;;;16.40;100.00
61678;BME280;47575;52.054;4.334;2022-09-09T07:22:41;100655.06;;;16.40;100.00
61678;BME280;47575;52.054;4.334;2022-09-09T07:25:09;100656.84;;;16.39;100.00
61678;BME280;47575;52.054;4.334;2022-09-09T07:27:37;100651.28;;;16.44;100.00
61678;BME280;47575;52.054;4.334;2022-09-09T07:30:06;100645.88;;;16.45;100.00
61678;BME280;47575;52.054;4.334;2022-09-09T07:32:35;100655.59;;;16.45;100.00
61678;BME280;47575;52.054;4.334;2022-09-09T07:35:04;100650.06;;;16.49;100.00
61678;BME280;47575;52.054;4.334;2022-09-09T07:37:31;100651.19;;;16.45;100.00
61678;BME280;47575;52.054;4.334;2022-09-09T07:39:59;100646.19;;;16.41;100.00
61678;BME280;47575;52.054;4.334;2022-09-09T07:42:26;100654.84;;;16.43;100.00
61678;BME280;47575;52.054;4.334;2022-09-09T07:44:53;100650.25;;;16.46;100.00
61678;BME280;47575;52.054;4.334;2022-09-09T07:47:21;100659.78;;;16.49;100.00
61678;BME280;47575;52.054;4.334;2022-09-09T07:49:50;100651.75;;;16.50;100.00
61678;BME280;47575;52.054;4.334;2022-09-09T07:52:27;100650.56;;;16.56;100.00
61678;BME280;47575;52.054;4.334;2022-09-09T07:54:58;100653.75;;;16.61;100.00
61678;BME280;47575;52.054;4.334;2022-09-09T07:57:26;100654.31;;;16.66;100.00
61678;BME280;47575;52.054;4.334;2022-09-09T07:59:54;100652.41;;;16.70;100.00
61678;BME280;47575;52.054;4.334;2022-09-09T08:02:22;100658.22;;;16.75;100.00
61678;BME280;47575;52.054;4.334;2022-09-09T08:04:51;100657.88;;;16.81;100.00
61678;BME280;47575;52.054;4.334;2022-09-09T08:07:20;100649.00;;;16.82;100.00
61678;BME280;47575;52.054;4.334;2022-09-09T08:09:52;100646.06;;;16.86;100.00
61678;BME280;47575;52.054;4.334;2022-09-09T08:12:27;100655.13;;;16.82;100.00
61678;BME280;47575;52.054;4.334;2022-09-09T08:14:55;100647.97;;;16.84;100.00
61678;BME280;47575;52.054;4.334;2022-09-09T08:17:27;100643.53;;;16.85;100.00
61678;BME280;47575;52.054;4.334;2022-09-09T08:19:54;100644.19;;;16.88;100.00
61678;BME280;47575;52.054;4.334;2022-09-09T08:22:25;100630.84;;;16.90;100.00
61678;BME280;47575;52.054;4.334;2022-09-09T08:24:55;100644.19;;;16.88;100.00
61678;BME280;47575;52.054;4.334;2022-09-09T08:27:23;100636.81;;;16.94;100.00
61678;BME280;47575;52.054;4.334;2022-09-09T08:29:52;100645.03;;;16.89;100.00
61678;BME280;47575;52.054;4.334;2022-09-09T08:32:19;100647.50;;;16.92;100.00
61678;BME280;47575;52.054;4.334;2022-09-09T08:34:47;100643.72;;;16.96;100.00
61678;BME280;47575;52.054;4.334;2022-09-09T08:37:19;100653.63;;;16.93;100.00
61678;BME280;47575;52.054;4.334;2022-09-09T08:39:47;100645.50;;;16.96;100.00
61678;BME280;47575;52.054;4.334;2022-09-09T08:42:36;100649.09;;;16.95;100.00
61678;BME280;47575;52.054;4.334;2022-09-09T08:45:14;100640.97;;;16.98;100.00
61678;BME280;47575;52.054;4.334;2022-09-09T08:47:54;100641.75;;;17.00;100.00
61678;BME280;47575;52.054;4.334;2022-09-09T08:50:26;100640.88;;;16.99;100.00
61678;BME280;47575;52.054;4.334;2022-09-09T08:53:05;100645.78;;;17.05;100.00
61678;BME280;47575;52.054;4.334;2022-09-09T08:55:41;100643.34;;;17.02;100.00
61678;BME280;47575;52.054;4.334;2022-09-09T08:58:14;100648.53;;;17.04;100.00
61678;BME280;47575;52.054;4.334;2022-09-09T09:01:04;100653.53;;;17.08;100.00
61678;BME280;47575;52.054;4.334;2022-09-09T09:03:45;100648.91;;;16.98;100.00
61678;BME280;47575;52.054;4.334;2022-09-09T09:06:26;100651.53;;;16.98;100.00
61678;BME280;47575;52.054;4.334;2022-09-09T09:09:01;100652.47;;;16.97;100.00
61678;BME280;47575;52.054;4.334;2022-09-09T09:11:35;100660.63;;;16.94;100.00
61678;BME280;47575;52.054;4.334;2022-09-09T09:14:09;100655.34;;;16.94;100.00
61678;BME280;47575;52.054;4.334;2022-09-09T09:16:41;100659.31;;;17.01;100.00
61678;BME280;47575;52.054;4.334;2022-09-09T09:19:15;100665.22;;;17.04;100.00
61678;BME280;47575;52.054;4.334;2022-09-09T09:21:45;100661.84;;;17.16;100.00
61678;BME280;47575;52.054;4.334;2022-09-09T09:24:18;100668.06;;;17.30;100.00
61678;BME280;47575;52.054;4.334;2022-09-09T09:26:47;100653.47;;;17.51;100.00
61678;BME280;47575;52.054;4.334;2022-09-09T09:29:18;100656.56;;;17.58;100.00
61678;BME280;47575;52.054;4.334;2022-09-09T09:31:50;100654.19;;;17.67;100.00
61678;BME280;47575;52.054;4.334;2022-09-09T09:34:18;100637.84;;;17.61;100.00
61678;BME280;47575;52.054;4.334;2022-09-09T09:36:53;100636.50;;;17.68;100.00
61678;BME280;47575;52.054;4.334;2022-09-09T09:39:25;100639.25;;;17.66;100.00
61678;BME280;47575;52.054;4.334;2022-09-09T09:41:56;100645.50;;;17.65;100.00
61678;BME280;47575;52.054;4.334;2022-09-09T09:44:30;100626.97;;;17.65;100.00
61678;BME280;47575;52.054;4.334;2022-09-09T09:47:07;100634.59;;;17.70;100.00
61678;BME280;47575;52.054;4.334;2022-09-09T09:49:35;100655.31;;;17.22;100.00
61678;BME280;47575;52.054;4.334;2022-09-09T09:52:04;100647.88;;;16.86;100.00
61678;BME280;47575;52.054;4.334;2022-09-09T09:54:34;100649.56;;;16.43;100.00
61678;BME280;47575;52.054;4.334;2022-09-09T09:57:09;100649.94;;;16.37;100.00
61678;BME280;47575;52.054;4.334;2022-09-09T09:59:38;100668.88;;;16.29;100.00
61678;BME280;47575;52.054;4.334;2022-09-09T10:02:14;100681.06;;;16.31;100.00
61678;BME280;47575;52.054;4.334;2022-09-09T10:04:42;100686.41;;;16.30;100.00
61678;BME280;47575;52.054;4.334;2022-09-09T10:07:11;100695.66;;;16.23;100.00
61678;BME280;47575;52.054;4.334;2022-09-09T10:09:40;100704.69;;;16.19;100.00
61678;BME280;47575;52.054;4.334;2022-09-09T10:12:16;100705.25;;;16.24;100.00
61678;BME280;47575;52.054;4.334;2022-09-09T10:14:53;100718.91;;;16.16;100.00
61678;BME280;47575;52.054;4.334;2022-09-09T10:17:29;100720.69;;;16.16;100.00
61678;BME280;47575;52.054;4.334;2022-09-09T10:20:14;100724.13;;;16.18;100.00
61678;BME280;47575;52.054;4.334;2022-09-09T10:22:48;100727.72;;;16.17;100.00
61678;BME280;47575;52.054;4.334;2022-09-09T10:25:29;100734.06;;;16.28;100.00
61678;BME280;47575;52.054;4.334;2022-09-09T10:28:23;100737.59;;;16.43;100.00
61678;BME280;47575;52.054;4.334;2022-09-09T10:31:04;100748.97;;;16.59;100.00
61678;BME280;47575;52.054;4.334;2022-09-09T10:33:44;100747.66;;;16.82;100.00
61678;BME280;47575;52.054;4.334;2022-09-09T10:36:18;100752.69;;;17.01;100.00
61678;BME280;47575;52.054;4.334;2022-09-09T10:38:47;100765.44;;;17.09;100.00
61678;BME280;47575;52.054;4.334;2022-09-09T10:41:39;100756.22;;;17.30;100.00
61678;BME280;47575;52.054;4.334;2022-09-09T10:44:21;100758.94;;;17.43;100.00
61678;BME280;47575;52.054;4.334;2022-09-09T10:47:24;100756.00;;;17.90;100.00
61678;BME280;47575;52.054;4.334;2022-09-09T10:50:18;100754.13;;;17.78;100.00
61678;BME280;47575;52.054;4.334;2022-09-09T10:52:58;100753.56;;;18.14;100.00
61678;BME280;47575;52.054;4.334;2022-09-09T10:55:33;100760.22;;;18.47;100.00
61678;BME280;47575;52.054;4.334;2022-09-09T10:58:03;100753.84;;;18.37;100.00
61678;BME280;47575;52.054;4.334;2022-09-09T11:00:38;100747.25;;;18.30;100.00
61678;BME280;47575;52.054;4.334;2022-09-09T11:03:15;100737.94;;;18.10;100.00
61678;BME280;47575;52.054;4.334;2022-09-09T11:05:46;100737.81;;;18.25;100.00
61678;BME280;47575;52.054;4.334;2022-09-09T11:08:19;100736.28;;;18.48;100.00
61678;BME280;47575;52.054;4.334;2022-09-09T11:10:52;100727.56;;;18.46;100.00
61678;BME280;47575;52.054;4.334;2022-09-09T11:13:25;100731.09;;;18.60;100.00
61678;BME280;47575;52.054;4.334;2022-09-09T11:16:01;100741.50;;;18.63;100.00
61678;BME280;47575;52.054;4.334;2022-09-09T11:18:36;100732.47;;;18.52;100.00
61678;BME280;47575;52.054;4.334;2022-09-09T11:21:10;100725.69;;;18.61;100.00
61678;BME280;47575;52.054;4.334;2022-09-09T11:23:41;100718.75;;;18.33;100.00
61678;BME280;47575;52.054;4.334;2022-09-09T11:26:13;100714.22;;;18.08;100.00
61678;BME280;47575;52.054;4.334;2022-09-09T11:28:54;100710.47;;;17.98;100.00
61678;BME280;47575;52.054;4.334;2022-09-09T11:31:42;100705.41;;;18.08;100.00
61678;BME280;47575;52.054;4.334;2022-09-09T11:34:26;100698.41;;;17.80;100.00
61678;BME280;47575;52.054;4.334;2022-09-09T11:37:17;100700.22;;;17.79;100.00
61678;BME280;47575;52.054;4.334;2022-09-09T11:40:17;100703.75;;;17.51;100.00
61678;BME280;47575;52.054;4.334;2022-09-09T11:42:45;100707.63;;;17.46;100.00
61678;BME280;47575;52.054;4.334;2022-09-09T11:45:23;100715.19;;;17.52;100.00
61678;BME280;47575;52.054;4.334;2022-09-09T11:47:53;100721.69;;;17.60;100.00
61678;BME280;47575;52.054;4.334;2022-09-09T11:50:35;100728.13;;;17.70;100.00
61678;BME280;47575;52.054;4.334;2022-09-09T11:53:21;100732.16;;;17.90;100.00
61678;BME280;47575;52.054;4.334;2022-09-09T11:56:07;100732.75;;;18.08;100.00
61678;BME280;47575;52.054;4.334;2022-09-09T11:58:44;100729.50;;;18.17;100.00
61678;BME280;47575;52.054;4.334;2022-09-09T12:01:34;100730.59;;;18.27;100.00
61678;BME280;47575;52.054;4.334;2022-09-09T12:06:56;100726.25;;;18.26;100.00
61678;BME280;47575;52.054;4.334;2022-09-09T12:09:27;100724.69;;;18.37;100.00
61678;BME280;47575;52.054;4.334;2022-09-09T12:12:07;100719.38;;;18.37;100.00
61678;BME280;47575;52.054;4.334;2022-09-09T12:14:56;100702.97;;;18.44;100.00
61678;BME280;47575;52.054;4.334;2022-09-09T12:17:25;100722.38;;;18.45;100.00
61678;BME280;47575;52.054;4.334;2022-09-09T12:20:00;100715.16;;;18.47;100.00
61678;BME280;47575;52.054;4.334;2022-09-09T12:22:37;100710.53;;;18.50;100.00
61678;BME280;47575;52.054;4.334;2022-09-09T12:25:17;100703.28;;;18.40;100.00
61678;BME280;47575;52.054;4.334;2022-09-09T12:27:57;100708.50;;;18.54;100.00
61678;BME280;47575;52.054;4.334;2022-09-09T12:30:29;100710.75;;;18.47;100.00
61678;BME280;47575;52.054;4.334;2022-09-09T12:33:01;100702.97;;;18.44;100.00
61678;BME280;47575;52.054;4.334;2022-09-09T12:35:29;100712.22;;;18.51;100.00
61678;BME280;47575;52.054;4.334;2022-09-09T12:38:01;100717.81;;;18.47;100.00
61678;BME280;47575;52.054;4.334;2022-09-09T12:40:30;100715.16;;;18.47;100.00
61678;BME280;47575;52.054;4.334;2022-09-09T12:43:01;100705.47;;;18.20;100.00
61678;BME280;47575;52.054;4.334;2022-09-09T12:45:31;100703.81;;;18.05;100.00
61678;BME280;47575;52.054;4.334;2022-09-09T12:48:00;100708.97;;;18.21;100.00
61678;BME280;47575;52.054;4.334;2022-09-09T12:50:32;100707.66;;;18.14;100.00
61678;BME280;47575;52.054;4.334;2022-09-09T12:53:03;100708.06;;;18.08;100.00
61678;BME280;47575;52.054;4.334;2022-09-09T12:55:35;100713.56;;;18.05;100.00
61678;BME280;47575;52.054;4.334;2022-09-09T12:58:05;100716.75;;;18.10;100.00
61678;BME280;47575;52.054;4.334;2022-09-09T13:00:33;100721.91;;;17.98;100.00
61678;BME280;47575;52.054;4.334;2022-09-09T13:03:13;100729.00;;;17.98;100.00
61678;BME280;47575;52.054;4.334;2022-09-09T13:05:43;100723.47;;;17.88;100.00
61678;BME280;47575;52.054;4.334;2022-09-09T13:08:13;100731.69;;;17.84;100.00
61678;BME280;47575;52.054;4.334;2022-09-09T13:10:44;100725.94;;;17.77;100.00